createdAt,value
2018-09-27T00:00:58.718Z,1025.52
2018-09-27T00:01:58.695Z,1025.52
2018-09-27T00:02:58.716Z,1025.49
2018-09-27T00:03:58.762Z,1025.48
2018-09-27T00:04:58.766Z,1025.46
2018-09-27T00:05:58.761Z,1025.46
2018-09-27T00:06:58.759Z,1025.42
2018-09-27T00:07:58.737Z,1025.39
2018-09-27T00:08:58.726Z,1025.41
2018-09-27T00:09:58.714Z,1025.40
2018-09-27T00:10:58.864Z,1025.37
2018-09-27T00:11:58.730Z,1025.41
2018-09-27T00:12:58.746Z,1025.42
2018-09-27T00:13:58.762Z,1025.42
2018-09-27T00:14:58.744Z,1025.41
2018-09-27T00:15:58.731Z,1025.42
2018-09-27T00:16:58.714Z,1025.44
2018-09-27T00:17:58.747Z,1025.45
2018-09-27T00:18:58.743Z,1025.47
2018-09-27T00:19:58.739Z,1025.48
2018-09-27T00:20:58.728Z,1025.49
2018-09-27T00:21:58.736Z,1025.49
2018-09-27T00:22:58.736Z,1025.49
2018-09-27T00:23:58.722Z,1025.49
2018-09-27T00:24:58.726Z,1025.48
2018-09-27T00:25:58.712Z,1025.49
2018-09-27T00:26:58.735Z,1025.51
2018-09-27T00:27:58.758Z,1025.50
2018-09-27T00:28:58.761Z,1025.46
2018-09-27T00:29:58.762Z,1025.47
2018-09-27T00:30:58.750Z,1025.45
2018-09-27T00:31:58.761Z,1025.46
2018-09-27T00:32:58.761Z,1025.49
2018-09-27T00:33:58.757Z,1025.43
2018-09-27T00:34:58.746Z,1025.46
2018-09-27T00:35:58.736Z,1025.48
2018-09-27T00:36:58.732Z,1025.51
2018-09-27T00:37:58.738Z,1025.50
2018-09-27T00:38:58.775Z,1025.51
2018-09-27T00:39:58.833Z,1025.52
2018-09-27T00:40:58.821Z,1025.53
2018-09-27T00:41:58.736Z,1025.51
2018-09-27T00:42:58.778Z,1025.53
2018-09-27T00:43:58.768Z,1025.46
2018-09-27T00:44:58.812Z,1025.40
2018-09-27T00:45:58.856Z,1025.34
2018-09-27T00:46:58.838Z,1025.35
2018-09-27T00:47:58.770Z,1025.36
2018-09-27T00:48:58.886Z,1025.35
2018-09-27T00:49:58.776Z,1025.36
2018-09-27T00:50:58.765Z,1025.34
2018-09-27T00:51:58.792Z,1025.38
2018-09-27T00:52:58.787Z,1025.38
2018-09-27T00:53:58.779Z,1025.39
2018-09-27T00:54:58.766Z,1025.40
2018-09-27T00:55:58.862Z,1025.41
2018-09-27T00:56:58.865Z,1025.40
2018-09-27T00:57:58.781Z,1025.42
2018-09-27T00:58:58.796Z,1025.40
2018-09-27T00:59:58.857Z,1025.40
2018-09-27T01:00:58.853Z,1025.37
2018-09-27T01:01:58.799Z,1025.38
2018-09-27T01:02:58.808Z,1025.37
2018-09-27T01:03:58.813Z,1025.35
2018-09-27T01:04:58.846Z,1025.34
2018-09-27T01:05:58.812Z,1025.39
2018-09-27T01:06:58.789Z,1025.35
2018-09-27T01:07:58.835Z,1025.34
2018-09-27T01:08:58.819Z,1025.35
2018-09-27T01:09:58.825Z,1025.36
2018-09-27T01:10:58.830Z,1025.33
2018-09-27T01:11:58.850Z,1025.35
2018-09-27T01:12:58.809Z,1025.36
2018-09-27T01:13:58.793Z,1025.34
2018-09-27T01:14:58.802Z,1025.35
2018-09-27T01:15:58.810Z,1025.31
2018-09-27T01:16:58.800Z,1025.34
2018-09-27T01:17:58.839Z,1025.27
2018-09-27T01:18:58.835Z,1025.25
2018-09-27T01:19:58.798Z,1025.20
2018-09-27T01:20:58.822Z,1025.22
2018-09-27T01:21:58.888Z,1025.21
2018-09-27T01:22:58.838Z,1025.19
2018-09-27T01:23:58.817Z,1025.21
2018-09-27T01:24:58.828Z,1025.20
2018-09-27T01:25:58.827Z,1025.20
2018-09-27T01:26:58.817Z,1025.18
2018-09-27T01:27:58.905Z,1025.22
2018-09-27T01:28:58.837Z,1025.21
2018-09-27T01:29:58.828Z,1025.19
2018-09-27T01:30:58.861Z,1025.23
2018-09-27T01:31:58.818Z,1025.25
2018-09-27T01:32:58.838Z,1025.24
2018-09-27T01:33:58.858Z,1025.23
2018-09-27T01:34:58.844Z,1025.25
2018-09-27T01:35:58.867Z,1025.27
2018-09-27T01:36:58.853Z,1025.26
2018-09-27T01:37:58.848Z,1025.23
2018-09-27T01:38:58.820Z,1025.23
2018-09-27T01:39:58.834Z,1025.19
2018-09-27T01:40:58.869Z,1025.20
2018-09-27T01:41:58.846Z,1025.19
2018-09-27T01:42:58.861Z,1025.17
2018-09-27T01:43:58.860Z,1025.14
2018-09-27T01:44:58.865Z,1025.11
2018-09-27T01:45:58.850Z,1025.11
2018-09-27T01:46:58.876Z,1025.08
2018-09-27T01:47:58.878Z,1025.06
2018-09-27T01:48:58.828Z,1025.04
2018-09-27T01:49:58.830Z,1025.04
2018-09-27T01:50:58.856Z,1025.04
2018-09-27T01:51:58.833Z,1025.05
2018-09-27T01:52:58.856Z,1025.06
2018-09-27T01:53:58.846Z,1025.08
2018-09-27T01:54:58.904Z,1025.03
2018-09-27T01:55:58.868Z,1025.05
2018-09-27T01:56:58.897Z,1025.06
2018-09-27T01:57:58.911Z,1025.07
2018-09-27T01:58:58.861Z,1025.05
2018-09-27T01:59:58.866Z,1025.04
2018-09-27T02:00:58.839Z,1025.00
2018-09-27T02:01:58.880Z,1025.01
2018-09-27T02:02:58.872Z,1024.95
2018-09-27T02:03:58.866Z,1024.94
2018-09-27T02:04:58.867Z,1024.92
2018-09-27T02:05:58.864Z,1024.91
2018-09-27T02:06:58.849Z,1024.89
2018-09-27T02:07:58.863Z,1024.93
2018-09-27T02:08:58.857Z,1024.90
2018-09-27T02:10:00.550Z,1024.86
2018-09-27T02:10:58.856Z,1024.90
2018-09-27T02:11:58.904Z,1024.91
2018-09-27T02:12:58.867Z,1024.87
2018-09-27T02:13:58.882Z,1024.87
2018-09-27T02:14:58.877Z,1024.86
2018-09-27T02:15:59.029Z,1024.87
2018-09-27T02:16:58.889Z,1024.86
2018-09-27T02:17:58.889Z,1024.85
2018-09-27T02:18:58.867Z,1024.85
2018-09-27T02:19:58.918Z,1024.80
2018-09-27T02:20:58.862Z,1024.79
2018-09-27T02:21:58.931Z,1024.84
2018-09-27T02:22:58.921Z,1024.76
2018-09-27T02:23:58.946Z,1024.79
2018-09-27T02:24:58.925Z,1024.76
2018-09-27T02:25:58.913Z,1024.72
2018-09-27T02:26:58.901Z,1024.72
2018-09-27T02:27:58.866Z,1024.69
2018-09-27T02:28:58.881Z,1024.69
2018-09-27T02:29:58.961Z,1024.65
2018-09-27T02:30:58.962Z,1024.63
2018-09-27T02:31:58.956Z,1024.64
2018-09-27T02:32:58.877Z,1024.60
2018-09-27T02:33:58.959Z,1024.63
2018-09-27T02:34:58.949Z,1024.58
2018-09-27T02:35:58.947Z,1024.57
2018-09-27T02:36:58.957Z,1024.57
2018-09-27T02:37:59.038Z,1024.58
2018-09-27T02:38:58.923Z,1024.59
2018-09-27T02:39:58.917Z,1024.59
2018-09-27T02:40:58.962Z,1024.61
2018-09-27T02:41:58.945Z,1024.62
2018-09-27T02:42:58.941Z,1024.61
2018-09-27T02:43:58.939Z,1024.63
2018-09-27T02:44:58.955Z,1024.62
2018-09-27T02:45:58.970Z,1024.66
2018-09-27T02:46:58.964Z,1024.66
2018-09-27T02:47:58.967Z,1024.67
2018-09-27T02:48:58.976Z,1024.66
2018-09-27T02:49:58.965Z,1024.61
2018-09-27T02:50:58.947Z,1024.58
2018-09-27T02:51:58.946Z,1024.56
2018-09-27T02:52:58.951Z,1024.58
2018-09-27T02:53:58.928Z,1024.52
2018-09-27T02:54:58.924Z,1024.54
2018-09-27T02:55:58.962Z,1024.52
2018-09-27T02:56:58.950Z,1024.51
2018-09-27T02:57:58.979Z,1024.48
2018-09-27T02:58:58.979Z,1024.52
2018-09-27T02:59:58.919Z,1024.52
2018-09-27T03:00:58.918Z,1024.52
2018-09-27T03:01:58.939Z,1024.53
2018-09-27T03:02:58.961Z,1024.51
2018-09-27T03:03:58.967Z,1024.53
2018-09-27T03:04:58.982Z,1024.53
2018-09-27T03:05:58.913Z,1024.52
2018-09-27T03:06:58.938Z,1024.54
2018-09-27T03:07:58.943Z,1024.49
2018-09-27T03:08:58.933Z,1024.48
2018-09-27T03:09:58.974Z,1024.46
2018-09-27T03:10:58.933Z,1024.46
2018-09-27T03:11:58.932Z,1024.41
2018-09-27T03:12:58.950Z,1024.45
2018-09-27T03:13:59.040Z,1024.42
2018-09-27T03:14:58.933Z,1024.41
2018-09-27T03:15:58.959Z,1024.42
2018-09-27T03:16:58.923Z,1024.41
2018-09-27T03:17:58.978Z,1024.39
2018-09-27T03:18:58.960Z,1024.38
2018-09-27T03:19:58.948Z,1024.36
2018-09-27T03:20:58.962Z,1024.38
2018-09-27T03:21:58.950Z,1024.36
2018-09-27T03:22:58.949Z,1024.39
2018-09-27T03:23:58.957Z,1024.36
2018-09-27T03:24:58.936Z,1024.39
2018-09-27T03:25:59.019Z,1024.35
2018-09-27T03:26:58.992Z,1024.33
2018-09-27T03:27:58.942Z,1024.36
2018-09-27T03:28:58.946Z,1024.34
2018-09-27T03:29:58.966Z,1024.32
2018-09-27T03:30:58.978Z,1024.33
2018-09-27T03:31:59.024Z,1024.35
2018-09-27T03:32:58.957Z,1024.32
2018-09-27T03:33:58.977Z,1024.31
2018-09-27T03:34:58.987Z,1024.34
2018-09-27T03:35:58.992Z,1024.36
2018-09-27T03:36:58.987Z,1024.37
2018-09-27T03:37:58.976Z,1024.38
2018-09-27T03:38:58.970Z,1024.40
2018-09-27T03:39:58.983Z,1024.36
2018-09-27T03:40:58.991Z,1024.39
2018-09-27T03:41:59.006Z,1024.39
2018-09-27T03:42:58.964Z,1024.37
2018-09-27T03:43:59.000Z,1024.42
2018-09-27T03:44:59.017Z,1024.40
2018-09-27T03:45:58.981Z,1024.38
2018-09-27T03:46:59.000Z,1024.34
2018-09-27T03:47:58.998Z,1024.35
2018-09-27T03:48:58.999Z,1024.31
2018-09-27T03:49:59.022Z,1024.28
2018-09-27T03:50:59.010Z,1024.29
2018-09-27T03:51:59.015Z,1024.28
2018-09-27T03:52:59.045Z,1024.24
2018-09-27T03:53:59.000Z,1024.22
2018-09-27T03:54:58.980Z,1024.24
2018-09-27T03:55:59.024Z,1024.25
2018-09-27T03:56:59.009Z,1024.26
2018-09-27T03:57:59.027Z,1024.24
2018-09-27T03:58:59.027Z,1024.23
2018-09-27T03:59:59.016Z,1024.20
2018-09-27T04:00:58.988Z,1024.18
2018-09-27T04:01:59.012Z,1024.18
2018-09-27T04:02:59.012Z,1024.20
2018-09-27T04:03:59.018Z,1024.18
2018-09-27T04:04:59.000Z,1024.17
2018-09-27T04:05:58.994Z,1024.19
2018-09-27T04:06:59.029Z,1024.19
2018-09-27T04:07:59.020Z,1024.25
2018-09-27T04:08:59.039Z,1024.23
2018-09-27T04:09:59.026Z,1024.24
2018-09-27T04:10:59.007Z,1024.27
2018-09-27T04:11:59.049Z,1024.22
2018-09-27T04:12:58.986Z,1024.23
2018-09-27T04:13:59.012Z,1024.20
2018-09-27T04:14:59.020Z,1024.18
2018-09-27T04:15:59.054Z,1024.23
2018-09-27T04:16:59.017Z,1024.19
2018-09-27T04:17:59.012Z,1024.20
2018-09-27T04:18:59.072Z,1024.20
2018-09-27T04:19:59.070Z,1024.18
2018-09-27T04:20:59.036Z,1024.19
2018-09-27T04:21:59.061Z,1024.17
2018-09-27T04:22:59.045Z,1024.13
2018-09-27T04:23:59.996Z,1024.17
2018-09-27T04:24:59.034Z,1024.15
2018-09-27T04:25:59.067Z,1024.17
2018-09-27T04:26:59.054Z,1024.20
2018-09-27T04:27:59.050Z,1024.14
2018-09-27T04:28:59.028Z,1024.15
2018-09-27T04:29:59.064Z,1024.17
2018-09-27T04:30:59.024Z,1024.16
2018-09-27T04:31:59.043Z,1024.19
2018-09-27T04:32:59.027Z,1024.19
2018-09-27T04:33:59.053Z,1024.18
2018-09-27T04:34:59.031Z,1024.18
2018-09-27T04:35:59.026Z,1024.18
2018-09-27T04:36:59.084Z,1024.16
2018-09-27T04:37:59.043Z,1024.13
2018-09-27T04:38:59.077Z,1024.11
2018-09-27T04:39:59.080Z,1024.14
2018-09-27T04:40:59.092Z,1024.15
2018-09-27T04:41:59.032Z,1024.11
2018-09-27T04:42:59.066Z,1024.12
2018-09-27T04:43:59.067Z,1024.13
2018-09-27T04:44:59.085Z,1024.16
2018-09-27T04:45:59.052Z,1024.14
2018-09-27T04:46:59.119Z,1024.15
2018-09-27T04:47:59.067Z,1024.14
2018-09-27T04:48:59.062Z,1024.14
2018-09-27T04:49:59.066Z,1024.11
2018-09-27T04:50:59.085Z,1024.11
2018-09-27T04:51:59.071Z,1024.10
2018-09-27T04:52:59.053Z,1024.08
2018-09-27T04:53:59.096Z,1024.06
2018-09-27T04:54:59.095Z,1024.04
2018-09-27T04:55:59.077Z,1024.07
2018-09-27T04:56:59.168Z,1024.03
2018-09-27T04:57:59.074Z,1024.07
2018-09-27T04:58:59.083Z,1024.06
2018-09-27T04:59:59.098Z,1024.11
2018-09-27T05:00:59.115Z,1024.09
2018-09-27T05:01:59.104Z,1024.13
2018-09-27T05:02:59.103Z,1024.12
2018-09-27T05:03:59.080Z,1024.14
2018-09-27T05:04:59.120Z,1024.16
2018-09-27T05:05:59.119Z,1024.15
2018-09-27T05:06:59.092Z,1024.12
2018-09-27T05:07:59.138Z,1024.13
2018-09-27T05:08:59.110Z,1024.15
2018-09-27T05:09:59.092Z,1024.12
2018-09-27T05:10:59.078Z,1024.13
2018-09-27T05:11:59.121Z,1024.07
2018-09-27T05:12:59.106Z,1024.08
2018-09-27T05:13:59.101Z,1024.09
2018-09-27T05:14:59.142Z,1024.11
2018-09-27T05:15:59.172Z,1024.13
2018-09-27T05:16:59.121Z,1024.12
2018-09-27T05:17:59.133Z,1024.11
2018-09-27T05:18:59.123Z,1024.12
2018-09-27T05:19:59.102Z,1024.11
2018-09-27T05:20:59.138Z,1024.13
2018-09-27T05:21:59.132Z,1024.13
2018-09-27T05:22:59.120Z,1024.16
2018-09-27T05:23:59.133Z,1024.15
2018-09-27T05:24:59.144Z,1024.11
2018-09-27T05:25:59.174Z,1024.15
2018-09-27T05:26:59.126Z,1024.17
2018-09-27T05:27:59.121Z,1024.13
2018-09-27T05:28:59.156Z,1024.12
2018-09-27T05:29:59.105Z,1024.09
2018-09-27T05:30:59.124Z,1024.10
2018-09-27T05:31:59.132Z,1023.99
2018-09-27T05:32:59.198Z,1024.03
2018-09-27T05:33:59.205Z,1023.98
2018-09-27T05:34:59.132Z,1023.99
2018-09-27T05:35:59.108Z,1023.98
2018-09-27T05:36:59.132Z,1023.98
2018-09-27T05:37:59.115Z,1024.01
2018-09-27T05:38:59.162Z,1024.00
2018-09-27T05:39:59.158Z,1024.01
2018-09-27T05:40:59.187Z,1023.99
2018-09-27T05:41:59.158Z,1024.04
2018-09-27T05:42:59.179Z,1024.02
2018-09-27T05:43:59.149Z,1024.06
2018-09-27T05:44:59.127Z,1024.03
2018-09-27T05:45:59.178Z,1024.02
2018-09-27T05:46:59.137Z,1024.03
2018-09-27T05:47:59.147Z,1024.01
2018-09-27T05:48:59.156Z,1024.00
2018-09-27T05:49:59.257Z,1024.02
2018-09-27T05:50:59.172Z,1023.99
2018-09-27T05:51:59.218Z,1023.96
2018-09-27T05:52:59.145Z,1023.96
2018-09-27T05:53:59.225Z,1023.98
2018-09-27T05:54:59.163Z,1023.98
2018-09-27T05:55:59.212Z,1023.97
2018-09-27T05:56:59.182Z,1023.97
2018-09-27T05:57:59.172Z,1023.98
2018-09-27T05:58:59.197Z,1023.99
2018-09-27T05:59:59.238Z,1023.98
2018-09-27T06:00:59.183Z,1024.05
2018-09-27T06:01:59.289Z,1024.05
2018-09-27T06:02:59.205Z,1024.08
2018-09-27T06:03:59.153Z,1024.09
2018-09-27T06:04:59.174Z,1024.04
2018-09-27T06:05:59.173Z,1024.04
2018-09-27T06:06:59.155Z,1024.01
2018-09-27T06:07:59.161Z,1024.00
2018-09-27T06:08:59.194Z,1023.97
2018-09-27T06:09:59.173Z,1023.99
2018-09-27T06:10:59.168Z,1024.03
2018-09-27T06:11:59.179Z,1024.05
2018-09-27T06:12:59.178Z,1024.04
2018-09-27T06:13:59.172Z,1024.05
2018-09-27T06:14:59.212Z,1024.07
2018-09-27T06:15:59.224Z,1024.04
2018-09-27T06:16:59.194Z,1024.06
2018-09-27T06:17:59.254Z,1024.04
2018-09-27T06:18:59.213Z,1024.07
2018-09-27T06:19:59.244Z,1024.04
2018-09-27T06:20:59.225Z,1024.01
2018-09-27T06:21:59.174Z,1024.01
2018-09-27T06:22:59.203Z,1024.01
2018-09-27T06:23:59.226Z,1024.03
2018-09-27T06:24:59.186Z,1024.02
2018-09-27T06:25:59.250Z,1024.00
2018-09-27T06:26:59.191Z,1024.04
2018-09-27T06:27:59.273Z,1024.03
2018-09-27T06:28:59.225Z,1024.09
2018-09-27T06:29:59.212Z,1024.07
2018-09-27T06:30:59.201Z,1024.07
2018-09-27T06:31:59.220Z,1024.07
2018-09-27T06:32:59.241Z,1024.07
2018-09-27T06:33:59.327Z,1024.09
2018-09-27T06:34:59.274Z,1024.09
2018-09-27T06:35:59.963Z,1024.13
2018-09-27T06:36:59.229Z,1024.19
2018-09-27T06:37:59.286Z,1024.15
2018-09-27T06:38:59.220Z,1024.19
2018-09-27T06:39:59.264Z,1024.20
2018-09-27T06:40:59.248Z,1024.19
2018-09-27T06:41:59.220Z,1024.24
2018-09-27T06:42:59.201Z,1024.23
2018-09-27T06:43:59.285Z,1024.25
2018-09-27T06:44:59.244Z,1024.16
2018-09-27T06:46:01.094Z,1024.13
2018-09-27T06:46:59.322Z,1024.13
2018-09-27T06:47:59.274Z,1024.11
2018-09-27T06:48:59.265Z,1024.11
2018-09-27T06:49:59.266Z,1024.10
2018-09-27T06:50:59.241Z,1024.12
2018-09-27T06:51:59.264Z,1024.11
2018-09-27T06:52:59.271Z,1024.10
2018-09-27T06:53:59.266Z,1024.11
2018-09-27T06:54:59.309Z,1024.12
2018-09-27T06:55:59.301Z,1024.14
2018-09-27T06:56:59.253Z,1024.13
2018-09-27T06:57:59.268Z,1024.12
2018-09-27T06:58:59.243Z,1024.10
2018-09-27T06:59:59.271Z,1024.13
2018-09-27T07:00:59.322Z,1024.23
2018-09-27T07:01:59.347Z,1024.17
2018-09-27T07:02:59.255Z,1024.15
2018-09-27T07:03:59.274Z,1024.17
2018-09-27T07:04:59.405Z,1024.24
2018-09-27T07:05:59.314Z,1024.23
2018-09-27T07:06:59.304Z,1024.24
2018-09-27T07:07:59.306Z,1024.21
2018-09-27T07:08:59.309Z,1024.24
2018-09-27T07:09:59.372Z,1024.29
2018-09-27T07:10:59.282Z,1024.31
2018-09-27T07:11:59.371Z,1024.27
2018-09-27T07:12:59.305Z,1024.24
2018-09-27T07:13:59.274Z,1024.28
2018-09-27T07:14:59.276Z,1024.23
2018-09-27T07:15:59.555Z,1024.26
2018-09-27T07:16:59.274Z,1024.25
2018-09-27T07:17:59.293Z,1024.28
2018-09-27T07:18:59.289Z,1024.33
2018-09-27T07:19:59.274Z,1024.33
2018-09-27T07:20:59.305Z,1024.41
2018-09-27T07:21:59.372Z,1024.34
2018-09-27T07:23:00.260Z,1024.39
2018-09-27T07:23:59.308Z,1024.33
2018-09-27T07:24:59.429Z,1024.33
2018-09-27T07:26:01.653Z,1024.32
2018-09-27T07:26:59.542Z,1024.36
2018-09-27T07:27:59.328Z,1024.35
2018-09-27T07:28:59.368Z,1024.36
2018-09-27T07:29:59.360Z,1024.39
2018-09-27T07:30:59.427Z,1024.38
2018-09-27T07:31:59.324Z,1024.38
2018-09-27T07:32:59.400Z,1024.46
2018-09-27T07:33:59.402Z,1024.47
2018-09-27T07:34:59.513Z,1024.48
2018-09-27T07:35:59.394Z,1024.50
2018-09-27T07:36:59.742Z,1024.54
2018-09-27T07:37:59.400Z,1024.53
2018-09-27T07:39:07.079Z,1024.54
2018-09-27T07:40:00.459Z,1024.55
2018-09-27T07:40:59.416Z,1024.49
2018-09-27T07:43:07.951Z,1024.54
2018-09-27T07:43:59.485Z,1024.57
2018-09-27T07:44:59.385Z,1024.56
2018-09-27T07:45:59.448Z,1024.58
2018-09-27T07:46:59.393Z,1024.58
2018-09-27T07:47:59.439Z,1024.58
2018-09-27T07:48:59.475Z,1024.58
2018-09-27T07:49:59.550Z,1024.59
2018-09-27T07:50:59.519Z,1024.63
2018-09-27T07:51:59.480Z,1024.64
2018-09-27T07:52:59.485Z,1024.67
2018-09-27T07:53:59.515Z,1024.65
2018-09-27T07:54:59.566Z,1024.67
2018-09-27T07:55:59.451Z,1024.67
2018-09-27T07:56:59.464Z,1024.71
2018-09-27T07:57:59.461Z,1024.71
2018-09-27T07:58:59.643Z,1024.74
2018-09-27T08:02:00.889Z,1024.66
2018-09-27T08:03:00.256Z,1024.65
2018-09-27T08:03:59.526Z,1024.69
2018-09-27T08:04:59.767Z,1024.63
2018-09-27T08:05:59.650Z,1024.64
2018-09-27T08:06:59.537Z,1024.61
2018-09-27T08:07:59.584Z,1024.65
2018-09-27T08:08:59.600Z,1024.64
2018-09-27T08:09:59.567Z,1024.64
2018-09-27T08:10:59.585Z,1024.59
2018-09-27T08:11:59.780Z,1024.58
2018-09-27T08:12:59.672Z,1024.59
2018-09-27T08:13:59.659Z,1024.60
2018-09-27T08:14:59.646Z,1024.58
2018-09-27T08:15:59.690Z,1024.60
2018-09-27T08:16:59.655Z,1024.57
2018-09-27T08:17:59.660Z,1024.57
2018-09-27T08:19:01.380Z,1024.58
2018-09-27T08:19:59.717Z,1024.63
2018-09-27T08:20:59.708Z,1024.59
2018-09-27T08:21:59.714Z,1024.58
2018-09-27T08:23:00.271Z,1024.57
2018-09-27T08:23:59.775Z,1024.59
2018-09-27T08:24:59.989Z,1024.59
2018-09-27T08:25:59.769Z,1024.57
2018-09-27T08:27:00.297Z,1024.55
2018-09-27T08:27:59.755Z,1024.60
2018-09-27T08:28:59.747Z,1024.56
2018-09-27T08:29:59.766Z,1024.58
2018-09-27T08:31:00.042Z,1024.64
2018-09-27T08:31:59.973Z,1024.60
2018-09-27T08:33:00.617Z,1024.58
2018-09-27T08:34:01.427Z,1024.55
2018-09-27T08:35:09.036Z,1024.55
2018-09-27T08:36:07.707Z,1024.54
2018-09-27T08:37:59.891Z,1024.58
2018-09-27T08:39:00.099Z,1024.58
2018-09-27T08:39:59.865Z,1024.60
2018-09-27T08:41:00.108Z,1024.53
2018-09-27T08:41:59.895Z,1024.54
2018-09-27T08:42:59.861Z,1024.55
2018-09-27T08:44:00.503Z,1024.52
2018-09-27T08:45:00.165Z,1024.48
2018-09-27T08:46:01.064Z,1024.48
2018-09-27T08:47:00.484Z,1024.50
2018-09-27T08:48:00.354Z,1024.50
2018-09-27T08:48:59.980Z,1024.54
2018-09-27T08:49:59.934Z,1024.52
2018-09-27T08:51:00.095Z,1024.50
2018-09-27T08:51:59.966Z,1024.45
2018-09-27T08:52:59.994Z,1024.46
2018-09-27T08:53:59.982Z,1024.42
2018-09-27T08:55:00.030Z,1024.42
2018-09-27T08:56:00.154Z,1024.39
2018-09-27T08:57:00.286Z,1024.40
2018-09-27T08:58:01.684Z,1024.37
2018-09-27T08:59:00.535Z,1024.33
2018-09-27T09:00:21.098Z,1024.28
2018-09-27T09:02:00.757Z,1024.25
2018-09-27T09:03:00.460Z,1024.19
2018-09-27T09:04:00.517Z,1024.15
2018-09-27T09:08:35.568Z,1024.14
2018-09-27T09:10:35.842Z,1024.15
2018-09-27T09:11:37.045Z,1024.15
2018-09-27T09:14:38.445Z,1024.08
2018-09-27T09:15:36.527Z,1024.08
2018-09-27T09:16:35.899Z,1024.07
2018-09-27T09:21:10.790Z,1023.96
2018-09-27T09:23:08.319Z,1023.96
2018-09-27T09:24:08.550Z,1023.94
2018-09-27T09:25:08.202Z,1023.94
2018-09-27T09:26:08.819Z,1023.91
2018-09-27T09:27:09.194Z,1023.87
2018-09-27T09:28:08.400Z,1023.85
2018-09-27T09:29:08.488Z,1023.88
2018-09-27T09:30:08.309Z,1023.86
2018-09-27T09:31:08.508Z,1023.85
2018-09-27T09:34:08.981Z,1023.74
2018-09-27T09:35:08.598Z,1023.77
2018-09-27T09:36:08.774Z,1023.74
2018-09-27T09:37:08.381Z,1023.76
2018-09-27T09:38:08.659Z,1023.77
2018-09-27T09:39:08.397Z,1023.76
2018-09-27T09:40:08.576Z,1023.77
2018-09-27T09:41:08.769Z,1023.78
2018-09-27T09:42:08.903Z,1023.77
2018-09-27T09:43:09.333Z,1023.74
2018-09-27T09:44:09.079Z,1023.72
2018-09-27T09:45:09.563Z,1023.69
2018-09-27T09:47:42.049Z,1023.64
2018-09-27T09:49:41.833Z,1023.66
2018-09-27T09:50:41.241Z,1023.63
2018-09-27T09:51:41.669Z,1023.66
2018-09-27T09:55:13.597Z,1023.60
2018-09-27T09:56:13.675Z,1023.58
2018-09-27T09:57:13.612Z,1023.56
2018-09-27T09:59:14.441Z,1023.51
2018-09-27T10:03:47.994Z,1023.43
2018-09-27T10:04:46.035Z,1023.41
2018-09-27T10:05:46.075Z,1023.35
2018-09-27T10:06:46.074Z,1023.38
2018-09-27T10:07:46.105Z,1023.39
2018-09-27T10:08:46.165Z,1023.37
2018-09-27T10:09:46.137Z,1023.33
2018-09-27T10:10:46.136Z,1023.38
2018-09-27T10:11:46.184Z,1023.40
2018-09-27T10:12:46.177Z,1023.50
2018-09-27T10:13:46.206Z,1023.58
2018-09-27T10:14:46.220Z,1023.51
2018-09-27T10:15:46.245Z,1023.44
2018-09-27T10:16:46.246Z,1023.45
2018-09-27T10:17:46.247Z,1023.41
2018-09-27T10:18:46.259Z,1023.41
2018-09-27T10:19:46.275Z,1023.38
2018-09-27T10:20:46.276Z,1023.35
2018-09-27T10:21:46.396Z,1023.30
2018-09-27T10:22:46.331Z,1023.26
2018-09-27T10:23:46.346Z,1023.19
2018-09-27T10:24:46.356Z,1023.16
2018-09-27T10:25:46.366Z,1023.15
2018-09-27T10:26:46.379Z,1023.09
2018-09-27T10:27:46.411Z,1023.04
2018-09-27T10:28:46.418Z,1022.97
2018-09-27T10:29:46.440Z,1022.95
2018-09-27T10:30:46.458Z,1022.90
2018-09-27T10:31:46.473Z,1022.91
2018-09-27T10:32:46.462Z,1022.90
2018-09-27T10:38:23.504Z,1022.96
2018-09-27T10:39:23.395Z,1022.91
2018-09-27T10:40:23.423Z,1022.94
2018-09-27T10:41:23.447Z,1022.92
2018-09-27T10:44:28.130Z,1022.83
2018-09-27T10:45:28.633Z,1022.77
2018-09-27T10:46:39.124Z,1022.77
2018-09-27T10:47:27.614Z,1022.80
2018-09-27T10:48:23.600Z,1022.77
2018-09-27T10:49:23.567Z,1022.73
2018-09-27T10:50:23.574Z,1022.72
2018-09-27T10:51:23.652Z,1022.71
2018-09-27T10:52:23.630Z,1022.69
2018-09-27T10:53:23.655Z,1022.73
2018-09-27T10:54:23.667Z,1022.74
2018-09-27T10:55:23.672Z,1022.73
2018-09-27T10:56:23.757Z,1022.71
2018-09-27T10:57:23.690Z,1022.64
2018-09-27T10:58:23.709Z,1022.66
2018-09-27T10:59:23.735Z,1022.64
2018-09-27T11:00:23.766Z,1022.63
2018-09-27T11:01:23.771Z,1022.60
2018-09-27T11:02:23.790Z,1022.59
2018-09-27T11:03:23.797Z,1022.57
2018-09-27T11:04:23.809Z,1022.56
2018-09-27T11:05:23.831Z,1022.55
2018-09-27T11:06:23.842Z,1022.56
2018-09-27T11:07:23.856Z,1022.52
2018-09-27T11:08:23.875Z,1022.48
2018-09-27T11:09:23.892Z,1022.50
2018-09-27T11:10:23.915Z,1022.48
2018-09-27T11:11:23.952Z,1022.45
2018-09-27T11:12:23.948Z,1022.44
2018-09-27T11:13:23.976Z,1022.42
2018-09-27T11:14:23.986Z,1022.45
2018-09-27T11:15:24.019Z,1022.42
2018-09-27T11:16:24.050Z,1022.39
2018-09-27T11:17:24.062Z,1022.33
2018-09-27T11:18:24.044Z,1022.34
2018-09-27T11:19:24.136Z,1022.28
2018-09-27T11:20:24.139Z,1022.25
2018-09-27T11:21:24.093Z,1022.24
2018-09-27T11:22:24.141Z,1022.15
2018-09-27T11:23:24.136Z,1022.12
2018-09-27T11:24:24.221Z,1022.04
2018-09-27T11:25:24.618Z,1021.86
2018-09-27T11:26:24.262Z,1021.84
2018-09-27T11:27:24.248Z,1021.83
2018-09-27T11:28:24.213Z,1021.78
2018-09-27T11:29:24.215Z,1021.70
2018-09-27T11:30:24.212Z,1021.73
2018-09-27T11:31:24.227Z,1021.71
2018-09-27T11:32:24.237Z,1021.66
2018-09-27T11:33:24.269Z,1021.70
2018-09-27T11:34:24.267Z,1021.62
2018-09-27T11:35:24.303Z,1021.59
2018-09-27T11:36:24.318Z,1021.54
2018-09-27T11:37:24.321Z,1021.57
2018-09-27T11:38:24.368Z,1021.52
2018-09-27T11:39:24.310Z,1021.47
2018-09-27T11:40:24.327Z,1021.45
2018-09-27T11:41:24.346Z,1021.43
2018-09-27T11:42:24.414Z,1021.40
2018-09-27T11:43:24.421Z,1021.40
2018-09-27T11:44:24.411Z,1021.36
2018-09-27T11:45:24.382Z,1021.34
2018-09-27T11:46:24.397Z,1021.32
2018-09-27T11:47:24.401Z,1021.26
2018-09-27T11:48:24.421Z,1021.23
2018-09-27T11:49:24.475Z,1021.21
2018-09-27T11:50:24.451Z,1021.18
2018-09-27T11:51:25.731Z,1021.11
2018-09-27T11:52:24.459Z,1021.09
2018-09-27T11:53:24.444Z,1021.13
2018-09-27T11:54:24.466Z,1021.07
2018-09-27T11:55:24.463Z,1021.08
2018-09-27T11:56:24.460Z,1021.03
2018-09-27T11:57:24.497Z,1020.97
2018-09-27T11:58:24.475Z,1020.98
2018-09-27T11:59:24.498Z,1020.94
2018-09-27T12:00:24.545Z,1020.93
2018-09-27T12:01:24.525Z,1020.91
2018-09-27T12:02:24.520Z,1020.90
2018-09-27T12:03:24.538Z,1020.89
2018-09-27T12:04:24.531Z,1020.84
2018-09-27T12:05:24.533Z,1020.76
2018-09-27T12:06:24.572Z,1020.74
2018-09-27T12:07:24.561Z,1020.72
2018-09-27T12:08:24.544Z,1020.69
2018-09-27T12:09:24.565Z,1020.70
2018-09-27T12:10:24.552Z,1020.69
2018-09-27T12:11:24.575Z,1020.64
2018-09-27T12:12:24.586Z,1020.63
2018-09-27T12:13:24.617Z,1020.64
2018-09-27T12:14:24.633Z,1020.60
2018-09-27T12:15:24.579Z,1020.59
2018-09-27T12:16:24.604Z,1020.56
2018-09-27T12:17:24.686Z,1020.51
2018-09-27T12:18:24.632Z,1020.51
2018-09-27T12:19:24.612Z,1020.53
2018-09-27T12:20:24.606Z,1020.52
2018-09-27T12:21:24.629Z,1020.48
2018-09-27T12:22:24.631Z,1020.47
2018-09-27T12:23:24.634Z,1020.44
2018-09-27T12:24:24.653Z,1020.43
2018-09-27T12:25:24.784Z,1020.41
2018-09-27T12:26:24.656Z,1020.44
2018-09-27T12:27:24.666Z,1020.44
2018-09-27T12:28:24.710Z,1020.45
2018-09-27T12:29:24.761Z,1020.42
2018-09-27T12:30:25.513Z,1020.40
2018-09-27T12:31:24.755Z,1020.34
2018-09-27T12:32:24.698Z,1020.37
2018-09-27T12:33:24.712Z,1020.31
2018-09-27T12:34:24.706Z,1020.34
2018-09-27T12:35:24.726Z,1020.31
2018-09-27T12:36:24.784Z,1020.31
2018-09-27T12:37:24.714Z,1020.35
2018-09-27T12:38:24.786Z,1020.28
2018-09-27T12:39:25.156Z,1020.28
2018-09-27T12:40:24.724Z,1020.26